createdAt,value
2018-08-28T00:02:16.638Z,16.64
2018-08-28T00:04:47.289Z,16.62
2018-08-28T00:07:17.986Z,16.61
2018-08-28T00:09:48.585Z,16.57
2018-08-28T00:12:19.337Z,16.69
2018-08-28T00:14:50.025Z,16.66
2018-08-28T00:17:20.668Z,16.62
2018-08-28T00:19:51.308Z,16.59
2018-08-28T00:22:22.101Z,16.60
2018-08-28T00:24:52.782Z,16.60
2018-08-28T00:27:23.536Z,16.65
2018-08-28T00:29:54.156Z,16.58
2018-08-28T00:32:24.792Z,16.60
2018-08-28T00:34:55.428Z,16.59
2018-08-28T00:37:26.033Z,16.72
2018-08-28T00:39:56.696Z,16.64
2018-08-28T00:42:27.364Z,16.63
2018-08-28T00:44:58.021Z,16.57
2018-08-28T00:47:28.630Z,16.54
2018-08-28T00:49:59.253Z,16.57
2018-08-28T00:52:29.959Z,16.64
2018-08-28T00:55:00.568Z,16.56
2018-08-28T00:57:31.200Z,16.66
2018-08-28T01:00:02.136Z,16.60
2018-08-28T01:02:32.746Z,16.61
2018-08-28T01:05:03.433Z,16.55
2018-08-28T01:07:34.101Z,16.53
2018-08-28T01:10:05.285Z,16.63
2018-08-28T01:12:35.946Z,16.70
2018-08-28T01:15:07.560Z,16.66
2018-08-28T01:17:38.205Z,16.66
2018-08-28T01:20:08.910Z,16.52
2018-08-28T01:22:39.755Z,16.54
2018-08-28T01:25:10.400Z,16.49
2018-08-28T01:27:41.053Z,16.50
2018-08-28T01:30:11.720Z,16.46
2018-08-28T01:32:42.332Z,16.50
2018-08-28T01:35:12.932Z,16.58
2018-08-28T01:37:43.552Z,16.56
2018-08-28T01:40:14.183Z,16.48
2018-08-28T01:42:44.895Z,16.57
2018-08-28T01:45:15.484Z,16.66
2018-08-28T01:47:46.122Z,16.70
2018-08-28T01:50:17.206Z,16.70
2018-08-28T01:52:47.909Z,16.63
2018-08-28T01:55:18.664Z,16.56
2018-08-28T01:57:49.246Z,16.58
2018-08-28T02:00:19.891Z,16.54
2018-08-28T02:02:50.531Z,16.42
2018-08-28T02:05:21.177Z,16.39
2018-08-28T02:07:51.792Z,16.49
2018-08-28T02:10:22.448Z,16.44
2018-08-28T02:12:53.030Z,16.55
2018-08-28T02:15:23.668Z,16.46
2018-08-28T02:17:54.280Z,16.43
2018-08-28T02:20:24.884Z,16.38
2018-08-28T02:22:55.516Z,16.35
2018-08-28T02:25:26.148Z,16.34
2018-08-28T02:27:56.769Z,16.34
2018-08-28T02:30:27.372Z,16.32
2018-08-28T02:32:57.998Z,16.42
2018-08-28T02:35:28.739Z,16.38
2018-08-28T02:37:59.442Z,16.39
2018-08-28T02:40:30.148Z,16.42
2018-08-28T02:43:00.815Z,16.42
2018-08-28T02:45:31.560Z,16.35
2018-08-28T02:48:02.174Z,16.43
2018-08-28T02:50:32.988Z,16.39
2018-08-28T02:53:03.962Z,16.35
2018-08-28T02:55:34.624Z,16.31
2018-08-28T02:58:05.277Z,16.36
2018-08-28T03:00:35.906Z,16.33
2018-08-28T03:03:06.920Z,16.34
2018-08-28T03:05:37.533Z,16.30
2018-08-28T03:08:08.207Z,16.34
2018-08-28T03:10:38.907Z,16.37
2018-08-28T03:13:09.578Z,16.34
2018-08-28T03:15:40.349Z,16.31
2018-08-28T03:18:10.990Z,16.34
2018-08-28T03:20:41.675Z,16.29
2018-08-28T03:23:12.359Z,16.26
2018-08-28T03:25:43.032Z,16.24
2018-08-28T03:28:13.743Z,16.21
2018-08-28T03:30:44.417Z,16.26
2018-08-28T03:33:15.074Z,16.27
2018-08-28T03:35:45.772Z,16.21
2018-08-28T03:38:16.457Z,16.26
2018-08-28T03:40:47.108Z,16.22
2018-08-28T03:43:18.011Z,16.18
2018-08-28T03:45:49.056Z,16.20
2018-08-28T03:48:19.696Z,16.21
2018-08-28T03:50:50.328Z,16.30
2018-08-28T03:53:21.519Z,16.26
2018-08-28T03:55:52.142Z,16.24
2018-08-28T03:58:22.814Z,16.33
2018-08-28T04:00:53.445Z,16.33
2018-08-28T04:03:24.116Z,16.20
2018-08-28T04:05:54.844Z,16.18
2018-08-28T04:08:25.776Z,16.17
2018-08-28T04:10:56.406Z,16.17
2018-08-28T04:13:27.016Z,16.19
2018-08-28T04:15:57.830Z,16.18
2018-08-28T04:18:28.453Z,16.21
2018-08-28T04:20:59.155Z,16.17
2018-08-28T04:23:29.817Z,16.17
2018-08-28T04:26:00.480Z,16.12
2018-08-28T04:28:31.148Z,16.27
2018-08-28T04:31:02.050Z,16.24
2018-08-28T04:33:32.666Z,16.15
2018-08-28T04:36:03.357Z,16.12
2018-08-28T04:38:33.961Z,16.13
2018-08-28T04:41:04.643Z,16.17
2018-08-28T04:43:35.387Z,16.18
2018-08-28T04:46:06.115Z,16.12
2018-08-28T04:48:36.869Z,16.10
2018-08-28T04:51:07.601Z,16.17
2018-08-28T04:53:38.302Z,16.14
2018-08-28T04:56:09.039Z,16.15
2018-08-28T04:58:39.737Z,16.14
2018-08-28T05:01:10.412Z,16.15
2018-08-28T05:03:41.085Z,16.23
2018-08-28T05:06:11.812Z,16.32
2018-08-28T05:08:42.438Z,16.30
2018-08-28T05:11:13.181Z,16.46
2018-08-28T05:13:43.821Z,16.28
2018-08-28T05:16:14.542Z,16.26
2018-08-28T05:18:45.133Z,16.21
2018-08-28T05:21:15.915Z,16.26
2018-08-28T05:23:46.519Z,16.32
2018-08-28T05:26:17.299Z,16.38
2018-08-28T05:28:48.030Z,16.33
2018-08-28T05:31:18.776Z,16.30
2018-08-28T05:33:49.450Z,16.34
2018-08-28T05:36:20.110Z,16.38
2018-08-28T05:38:50.770Z,16.36
2018-08-28T05:41:21.452Z,16.46
2018-08-28T05:43:52.136Z,16.48
2018-08-28T05:46:22.824Z,16.49
2018-08-28T05:48:53.487Z,16.47
2018-08-28T05:51:24.182Z,16.49
2018-08-28T05:53:54.811Z,16.46
2018-08-28T05:56:25.541Z,16.48
2018-08-28T05:58:56.170Z,16.50
2018-08-28T06:01:26.866Z,16.56
2018-08-28T06:03:57.512Z,16.56
2018-08-28T06:06:28.220Z,16.58
2018-08-28T06:08:58.860Z,16.59
2018-08-28T06:11:29.490Z,16.57
2018-08-28T06:14:00.219Z,16.59
2018-08-28T06:16:30.919Z,16.63
2018-08-28T06:19:01.617Z,16.63
2018-08-28T06:21:32.280Z,16.64
2018-08-28T06:24:02.920Z,16.72
2018-08-28T06:26:33.614Z,16.65
2018-08-28T06:29:04.246Z,16.74
2018-08-28T06:31:34.916Z,16.76
2018-08-28T06:34:05.656Z,16.79
2018-08-28T06:36:36.349Z,16.77
2018-08-28T06:39:09.099Z,16.82
2018-08-28T06:41:40.159Z,16.84
2018-08-28T06:44:10.824Z,16.89
2018-08-28T06:46:41.459Z,16.98
2018-08-28T06:49:12.068Z,17.06
2018-08-28T06:51:42.779Z,17.21
2018-08-28T06:54:13.587Z,17.24
2018-08-28T06:56:44.287Z,17.30
2018-08-28T06:59:14.933Z,17.38
2018-08-28T07:01:45.591Z,17.53
2018-08-28T07:04:17.245Z,17.39
2018-08-28T07:06:47.921Z,17.51
2018-08-28T07:09:18.739Z,17.48
2018-08-28T07:11:49.411Z,17.48
2018-08-28T07:14:20.090Z,17.45
2018-08-28T07:16:50.749Z,17.47
2018-08-28T07:19:21.468Z,17.53
2018-08-28T07:21:52.117Z,17.74
2018-08-28T07:24:22.838Z,17.71
2018-08-28T07:26:53.496Z,17.74
2018-08-28T07:29:24.128Z,17.79
2018-08-28T07:31:54.915Z,17.84
2018-08-28T07:34:25.480Z,17.89
2018-08-28T07:36:56.103Z,18.16
2018-08-28T07:39:26.752Z,18.20
2018-08-28T07:41:57.367Z,18.28
2018-08-28T07:44:28.067Z,18.39
2018-08-28T07:46:58.775Z,18.54
2018-08-28T07:49:29.447Z,18.79
2018-08-28T07:52:00.098Z,18.91
2018-08-28T07:54:30.741Z,19.17
2018-08-28T07:57:01.464Z,19.24
2018-08-28T07:59:32.112Z,19.35
2018-08-28T08:02:02.956Z,19.64
2018-08-28T08:04:34.059Z,20.00
2018-08-28T08:07:05.167Z,20.45
2018-08-28T08:09:35.822Z,21.00
2018-08-28T08:12:06.645Z,21.40
2018-08-28T08:14:37.296Z,21.60
2018-08-28T08:17:08.181Z,21.68
2018-08-28T08:19:38.896Z,21.92
2018-08-28T08:22:09.597Z,22.39
2018-08-28T08:24:40.610Z,22.62
2018-08-28T08:27:11.224Z,22.93
2018-08-28T08:29:42.073Z,23.16
2018-08-28T08:32:12.740Z,23.48
2018-08-28T08:34:43.400Z,23.26
2018-08-28T08:37:14.192Z,22.57
2018-08-28T08:39:44.828Z,22.07
2018-08-28T08:42:15.540Z,21.87
2018-08-28T08:44:46.203Z,22.08
2018-08-28T08:47:16.817Z,22.28
2018-08-28T08:49:47.491Z,22.51
2018-08-28T08:52:18.433Z,22.65
2018-08-28T08:57:18.474Z,23.09
2018-08-28T08:59:49.084Z,23.23
2018-08-28T09:02:19.700Z,23.10
2018-08-28T09:04:50.296Z,23.15
2018-08-28T09:07:20.929Z,23.17
2018-08-28T09:09:51.685Z,23.49
2018-08-28T09:12:22.416Z,23.95
2018-08-28T09:14:53.108Z,23.83
2018-08-28T09:17:23.770Z,23.69
2018-08-28T09:19:54.513Z,23.86
2018-08-28T09:22:25.104Z,24.00
2018-08-28T09:24:55.808Z,23.81
2018-08-28T09:27:26.688Z,23.98
2018-08-28T09:29:57.336Z,23.89
2018-08-28T09:32:28.086Z,23.65
2018-08-28T09:34:58.710Z,23.92
2018-08-28T09:37:29.385Z,24.42
2018-08-28T09:40:00.052Z,25.06
2018-08-28T09:42:30.688Z,25.48
2018-08-28T09:45:01.352Z,25.29
2018-08-28T09:47:31.968Z,25.34
2018-08-28T09:50:02.602Z,25.17
2018-08-28T09:52:33.238Z,24.85
2018-08-28T09:55:04.031Z,24.57
2018-08-28T09:57:34.752Z,24.79
2018-08-28T10:00:05.857Z,24.61
2018-08-28T10:02:37.446Z,24.52
2018-08-28T10:05:08.138Z,24.50
2018-08-28T10:07:38.815Z,24.21
2018-08-28T10:10:09.524Z,23.72
2018-08-28T10:12:40.276Z,24.15
2018-08-28T10:15:11.151Z,24.77
2018-08-28T10:17:42.102Z,25.33
2018-08-28T10:20:13.066Z,25.54
2018-08-28T10:22:43.794Z,25.33
2018-08-28T10:25:14.404Z,25.64
2018-08-28T10:27:45.199Z,25.88
2018-08-28T10:30:15.867Z,25.59
2018-08-28T10:32:46.556Z,25.55
2018-08-28T10:35:17.248Z,25.47
2018-08-28T10:37:47.942Z,25.54
2018-08-28T10:40:19.594Z,25.85
2018-08-28T10:42:50.284Z,25.64
2018-08-28T10:45:21.004Z,24.84
2018-08-28T10:47:51.696Z,24.66
2018-08-28T10:51:25.795Z,24.72
2018-08-28T10:53:56.455Z,25.51
2018-08-28T10:56:27.129Z,25.76
2018-08-28T10:58:57.839Z,25.93
2018-08-28T11:01:28.617Z,26.03
2018-08-28T11:03:59.284Z,26.01
2018-08-28T11:06:29.997Z,25.69
2018-08-28T11:09:00.687Z,25.18
2018-08-28T11:11:31.482Z,24.80
2018-08-28T11:14:02.235Z,24.64
2018-08-28T11:16:32.967Z,24.56
2018-08-28T11:19:03.745Z,24.93
2018-08-28T11:21:34.521Z,25.77
2018-08-28T11:24:05.290Z,26.67
2018-08-28T11:26:36.047Z,27.43
2018-08-28T11:29:06.817Z,27.97
2018-08-28T11:31:37.593Z,28.54
2018-08-28T11:34:08.364Z,28.96
2018-08-28T11:36:39.057Z,29.03
2018-08-28T11:39:10.020Z,29.04
2018-08-28T11:41:40.744Z,28.76
2018-08-28T11:44:11.534Z,28.39
2018-08-28T11:46:42.274Z,28.01
2018-08-28T11:49:13.073Z,27.79
2018-08-28T11:51:43.851Z,27.67
2018-08-28T11:57:03.641Z,27.40
2018-08-28T11:59:34.378Z,26.70
2018-08-28T12:02:05.233Z,25.85
2018-08-28T12:04:36.028Z,25.55
2018-08-28T12:07:07.405Z,25.36
2018-08-28T12:09:38.018Z,25.37
2018-08-28T12:12:09.870Z,25.64
2018-08-28T12:14:40.556Z,25.86
2018-08-28T12:17:11.250Z,25.93
2018-08-28T12:19:41.920Z,26.04
2018-08-28T12:22:12.698Z,25.55
2018-08-28T12:24:43.391Z,25.46
2018-08-28T12:27:14.083Z,25.31
2018-08-28T12:29:44.893Z,25.25
2018-08-28T12:32:15.595Z,25.33
2018-08-28T12:34:46.297Z,25.36
2018-08-28T12:37:17.127Z,25.56
2018-08-28T12:39:47.927Z,26.16
2018-08-28T12:42:18.907Z,26.91
2018-08-28T12:44:49.851Z,27.56
2018-08-28T12:47:20.564Z,27.78
2018-08-28T12:49:51.413Z,28.01
2018-08-28T12:52:22.121Z,28.20
2018-08-28T12:54:52.930Z,28.03
2018-08-28T12:57:23.831Z,27.94
2018-08-28T13:00:09.146Z,28.10
2018-08-28T13:02:39.816Z,28.30
2018-08-28T13:05:10.586Z,28.54
2018-08-28T13:07:41.288Z,28.86
2018-08-28T13:10:12.007Z,28.90
2018-08-28T13:12:42.688Z,28.74
2018-08-28T13:15:13.459Z,28.66
2018-08-28T13:17:44.359Z,28.75
2018-08-28T13:20:15.077Z,28.95
2018-08-28T13:22:45.748Z,28.87
2018-08-28T13:25:16.483Z,28.71
2018-08-28T13:27:47.094Z,28.84
2018-08-28T13:30:17.771Z,28.89
2018-08-28T13:32:48.505Z,29.32
2018-08-28T13:35:19.135Z,29.65
2018-08-28T13:37:49.780Z,29.28
2018-08-28T13:40:20.505Z,29.22
2018-08-28T13:42:51.269Z,29.26
2018-08-28T13:45:21.935Z,29.50
2018-08-28T13:47:52.560Z,29.89
2018-08-28T13:50:23.479Z,30.24
2018-08-28T13:52:54.081Z,30.17
2018-08-28T13:55:24.731Z,29.72
2018-08-28T13:57:55.449Z,29.76
2018-08-28T14:00:26.088Z,30.02
2018-08-28T14:02:56.764Z,29.97
2018-08-28T14:05:27.373Z,29.96
2018-08-28T14:07:58.033Z,29.64
2018-08-28T14:10:28.684Z,29.56
2018-08-28T14:53:41.460Z,30.47
2018-08-28T14:56:12.221Z,30.66
2018-08-28T14:58:42.869Z,30.94
2018-08-28T15:01:13.608Z,31.15
2018-08-28T15:03:44.247Z,31.17
2018-08-28T15:06:15.047Z,31.17
2018-08-28T15:08:45.681Z,31.19
2018-08-28T15:11:16.311Z,31.22
2018-08-28T15:13:47.099Z,31.20
2018-08-28T15:16:19.032Z,31.21
2018-08-28T15:18:49.935Z,31.24
2018-08-28T15:21:20.575Z,31.18
2018-08-28T15:23:51.220Z,31.04
2018-08-28T15:26:21.931Z,30.88
2018-08-28T15:28:52.707Z,30.68
2018-08-28T15:31:23.405Z,30.68
2018-08-28T15:33:54.063Z,30.58
2018-08-28T15:36:26.035Z,30.34
2018-08-28T15:38:58.047Z,30.17
2018-08-28T15:41:28.701Z,30.16
2018-08-28T15:43:59.383Z,30.16
2018-08-28T15:46:30.098Z,30.24
2018-08-28T15:49:00.885Z,30.04
2018-08-28T15:51:31.607Z,29.86
2018-08-28T15:54:02.427Z,29.71
2018-08-28T15:56:33.138Z,29.76
2018-08-28T15:59:03.851Z,29.84
2018-08-28T16:01:34.496Z,29.64
2018-08-28T16:04:05.183Z,29.44
2018-08-28T16:06:35.882Z,29.29
2018-08-28T16:09:06.752Z,29.29
2018-08-28T16:11:37.414Z,29.24
2018-08-28T16:14:08.044Z,29.06
2018-08-28T16:16:38.644Z,28.99
2018-08-28T16:19:09.339Z,28.97
2018-08-28T16:21:45.950Z,28.60
2018-08-28T16:24:16.741Z,28.34
2018-08-28T16:26:47.468Z,28.14
2018-08-28T16:29:18.143Z,27.99
2018-08-28T16:31:48.843Z,27.72
2018-08-28T16:34:19.515Z,27.54
2018-08-28T16:36:50.130Z,27.46
2018-08-28T16:39:20.769Z,27.42
2018-08-28T16:41:51.375Z,27.39
2018-08-28T16:44:21.992Z,27.28
2018-08-28T16:46:52.634Z,27.14
2018-08-28T16:49:23.264Z,27.04
2018-08-28T16:51:53.944Z,26.99
2018-08-28T16:54:24.583Z,26.89
2018-08-28T16:56:55.240Z,26.81
2018-08-28T16:59:25.841Z,26.58
2018-08-28T17:01:56.550Z,26.30
2018-08-28T17:04:27.087Z,26.14
2018-08-28T17:06:57.738Z,26.04
2018-08-28T17:09:28.380Z,25.80
2018-08-28T17:11:59.049Z,25.67
2018-08-28T17:15:00.537Z,25.54
2018-08-28T17:17:31.170Z,25.23
2018-08-28T17:20:01.830Z,25.06
2018-08-28T17:22:32.472Z,24.90
2018-08-28T17:25:03.133Z,24.73
2018-08-28T17:27:33.813Z,24.55
2018-08-28T17:30:04.610Z,24.47
2018-08-28T17:32:35.290Z,24.36
2018-08-28T17:35:05.957Z,24.21
2018-08-28T17:37:36.673Z,24.14
2018-08-28T17:40:07.351Z,23.91
2018-08-28T17:42:38.128Z,23.74
2018-08-28T17:45:08.910Z,23.61
2018-08-28T17:47:39.642Z,23.45
2018-08-28T17:50:10.293Z,23.37
2018-08-28T17:52:40.941Z,23.27
2018-08-28T17:55:11.591Z,23.14
2018-08-28T17:57:42.328Z,23.05
2018-08-28T18:00:13.215Z,22.94
2018-08-28T18:02:43.962Z,22.86
2018-08-28T18:05:14.704Z,22.78
2018-08-28T18:07:45.549Z,22.72
2018-08-28T18:10:16.369Z,22.61
2018-08-28T18:12:47.021Z,22.51
2018-08-28T18:15:17.792Z,22.43
2018-08-28T18:19:10.148Z,22.41
2018-08-28T18:21:43.439Z,22.25
2018-08-28T18:24:14.180Z,22.19
2018-08-28T18:26:44.845Z,22.09
2018-08-28T18:29:15.515Z,21.98
2018-08-28T18:31:46.186Z,21.90
2018-08-28T18:34:17.057Z,21.82
2018-08-28T18:36:47.732Z,21.78
2018-08-28T18:39:18.510Z,21.77
2018-08-28T18:41:49.218Z,21.67
2018-08-28T18:44:20.132Z,21.62
2018-08-28T18:46:50.849Z,21.51
2018-08-28T18:49:21.894Z,21.49
2018-08-28T18:51:52.648Z,21.38
2018-08-28T18:54:23.405Z,21.33
2018-08-28T18:56:54.035Z,21.21
2018-08-28T18:59:24.733Z,21.18
2018-08-28T19:01:55.458Z,21.09
2018-08-28T19:04:26.156Z,21.00
2018-08-28T19:06:56.916Z,21.05
2018-08-28T19:09:27.664Z,20.99
2018-08-28T19:11:58.527Z,20.94
2018-08-28T19:14:29.238Z,20.91
2018-08-28T19:17:00.078Z,20.90
2018-08-28T19:19:30.746Z,20.86
2018-08-28T19:22:01.537Z,20.71
2018-08-28T19:24:32.360Z,20.69
2018-08-28T19:27:03.102Z,20.64
2018-08-28T19:29:33.885Z,20.61
2018-08-28T19:32:04.802Z,20.52
2018-08-28T19:34:35.603Z,20.54
2018-08-28T19:37:06.361Z,20.44
2018-08-28T19:39:37.118Z,20.38
2018-08-28T19:42:07.813Z,20.31
2018-08-28T19:44:38.531Z,20.23
2018-08-28T19:47:09.225Z,20.26
2018-08-28T19:49:39.901Z,20.23
2018-08-28T19:52:10.683Z,20.18
2018-08-28T19:54:41.378Z,20.11
2018-08-28T19:57:12.104Z,20.01
2018-08-28T19:59:42.889Z,19.91
2018-08-28T20:02:13.698Z,19.89
2018-08-28T20:04:44.428Z,19.83
2018-08-28T20:07:15.184Z,19.75
2018-08-28T20:09:46.070Z,19.71
2018-08-28T20:12:16.828Z,19.69
2018-08-28T20:14:47.555Z,19.65
2018-08-28T20:17:18.255Z,19.64
2018-08-28T20:19:49.272Z,19.68
2018-08-28T20:22:19.938Z,19.62
2018-08-28T20:24:50.798Z,19.56
2018-08-28T20:27:21.697Z,19.46
2018-08-28T20:29:52.566Z,19.46
2018-08-28T20:32:23.559Z,19.40
2018-08-28T20:34:54.400Z,19.35
2018-08-28T20:37:25.335Z,19.25
2018-08-28T20:39:56.029Z,19.17
2018-08-28T20:42:26.733Z,19.10
2018-08-28T20:44:57.516Z,19.11
2018-08-28T20:47:28.218Z,19.13
2018-08-28T20:49:58.992Z,19.07
2018-08-28T20:52:29.727Z,19.01
2018-08-28T20:55:00.397Z,19.00
2018-08-28T20:57:31.187Z,19.01
2018-08-28T21:00:01.946Z,19.01
2018-08-28T21:02:32.681Z,19.01
2018-08-28T21:05:03.428Z,19.02
2018-08-28T21:07:34.142Z,19.02
2018-08-28T21:10:04.975Z,18.99
2018-08-28T21:12:35.755Z,18.97
2018-08-28T21:15:06.606Z,18.96
2018-08-28T21:17:37.367Z,18.92
2018-08-28T21:20:08.944Z,18.90
2018-08-28T21:22:39.665Z,18.84
2018-08-28T21:25:10.528Z,18.81
2018-08-28T21:27:41.263Z,18.80
2018-08-28T21:30:12.109Z,18.76
2018-08-28T21:32:42.877Z,18.74
2018-08-28T21:35:13.624Z,18.66
2018-08-28T21:37:44.403Z,18.65
2018-08-28T21:40:15.067Z,18.67
2018-08-28T21:42:45.741Z,18.61
2018-08-28T21:45:16.475Z,18.61
2018-08-28T21:47:47.135Z,18.53
2018-08-28T21:50:17.847Z,18.44
2018-08-28T21:52:48.527Z,18.36
2018-08-28T21:55:19.236Z,18.35
2018-08-28T21:57:49.960Z,18.37
2018-08-28T22:00:20.745Z,18.37
2018-08-28T22:02:51.436Z,18.35
2018-08-28T22:05:27.354Z,18.32
2018-08-28T22:08:00.281Z,18.25
2018-08-28T22:10:31.697Z,18.21
2018-08-28T22:13:02.410Z,18.18
2018-08-28T22:15:33.123Z,18.14
2018-08-28T22:18:03.935Z,18.10
2018-08-28T22:20:34.592Z,18.09
2018-08-28T22:23:05.295Z,18.04
2018-08-28T22:25:36.028Z,17.95
2018-08-28T22:28:07.107Z,17.94
2018-08-28T22:30:37.809Z,17.89
2018-08-28T22:33:08.523Z,17.84
2018-08-28T22:35:39.326Z,17.76
2018-08-28T22:38:09.989Z,17.67
2018-08-28T22:40:40.729Z,17.62
2018-08-28T22:43:11.465Z,17.56
2018-08-28T22:45:42.178Z,17.52
2018-08-28T22:48:12.904Z,17.57
2018-08-28T22:50:43.583Z,17.48
2018-08-28T22:53:14.282Z,17.45
2018-08-28T22:55:45.005Z,17.43
2018-08-28T22:58:15.697Z,17.34
2018-08-28T23:00:46.411Z,17.23
2018-08-28T23:03:17.069Z,17.14
2018-08-28T23:05:47.765Z,17.16
2018-08-28T23:08:18.390Z,17.17
2018-08-28T23:10:49.075Z,17.17
2018-08-28T23:13:19.744Z,17.09
2018-08-28T23:15:50.404Z,17.07
2018-08-28T23:18:21.089Z,17.11
2018-08-28T23:20:51.719Z,17.10
2018-08-28T23:23:22.379Z,17.02
2018-08-28T23:25:53.106Z,17.03
2018-08-28T23:28:23.835Z,16.94
2018-08-28T23:30:54.622Z,16.88
2018-08-28T23:33:25.326Z,16.82
2018-08-28T23:35:56.009Z,16.78
2018-08-28T23:38:26.651Z,16.83
2018-08-28T23:40:57.384Z,16.88
2018-08-28T23:43:28.054Z,16.80
2018-08-28T23:45:58.807Z,16.78
2018-08-28T23:48:29.455Z,16.73
2018-08-28T23:51:00.256Z,16.63
2018-08-28T23:53:30.986Z,16.62
2018-08-28T23:56:01.803Z,16.64
2018-08-28T23:58:32.528Z,16.59
